createdAt,value
2024-05-09T00:00:47.576Z,-23.7
2024-05-09T00:01:47.366Z,-23.7
2024-05-09T00:02:47.387Z,-23.6
2024-05-09T00:03:47.443Z,-23.6
2024-05-09T00:04:47.438Z,-23.5
2024-05-09T00:05:47.475Z,-23.4
2024-05-09T00:06:47.365Z,-23.4
2024-05-09T00:07:47.410Z,-23.3
2024-05-09T00:08:47.384Z,-23.3
2024-05-09T00:09:47.389Z,-23.2
2024-05-09T00:10:47.472Z,-23.2
2024-05-09T00:11:47.518Z,-23.1
2024-05-09T00:12:47.381Z,-23
2024-05-09T00:13:47.409Z,-23
2024-05-09T00:14:47.351Z,-22.9
2024-05-09T00:15:47.379Z,-22.8
2024-05-09T00:16:47.422Z,-22.8
2024-05-09T00:17:47.599Z,-22.7
2024-05-09T00:18:47.475Z,-22.7
2024-05-09T00:19:47.392Z,-22.6
2024-05-09T00:20:47.584Z,-22.5
2024-05-09T00:21:47.356Z,-22.5
2024-05-09T00:22:47.416Z,-22.4
2024-05-09T00:23:47.358Z,-22.3
2024-05-09T00:24:47.383Z,-22.3
2024-05-09T00:25:47.372Z,-22.2
2024-05-09T00:26:47.390Z,-22.1
2024-05-09T00:27:47.381Z,-22
2024-05-09T00:28:47.418Z,-22
2024-05-09T00:29:47.376Z,-21.9
2024-05-09T00:30:47.382Z,-21.8
2024-05-09T00:31:47.426Z,-21.8
2024-05-09T00:32:47.507Z,-21.7
2024-05-09T00:33:47.467Z,-21.6
2024-05-09T00:34:47.430Z,-21.5
2024-05-09T00:35:47.374Z,-21.5
2024-05-09T00:36:47.363Z,-21.4
2024-05-09T00:37:47.338Z,-21.3
2024-05-09T00:38:47.355Z,-21.2
2024-05-09T00:39:47.366Z,-21.1
2024-05-09T00:40:47.472Z,-21.1
2024-05-09T00:41:47.413Z,-21
2024-05-09T00:42:47.349Z,-20.9
2024-05-09T00:43:47.390Z,-20.8
2024-05-09T00:44:47.379Z,-20.7
2024-05-09T00:45:47.374Z,-20.7
2024-05-09T00:46:47.399Z,-20.6
2024-05-09T00:47:47.508Z,-20.5
2024-05-09T00:48:47.481Z,-20.4
2024-05-09T00:49:47.466Z,-20.3
2024-05-09T00:50:47.578Z,-20.2
2024-05-09T00:51:47.346Z,-20.2
2024-05-09T00:52:47.414Z,-20.1
2024-05-09T00:53:47.389Z,-20
2024-05-09T00:54:47.392Z,-19.9
2024-05-09T00:55:47.594Z,-19.8
2024-05-09T00:56:47.388Z,-19.7
2024-05-09T00:57:47.317Z,-19.6
2024-05-09T00:58:47.436Z,-19.5
2024-05-09T00:59:47.378Z,-19.4
2024-05-09T01:00:47.393Z,-19.3
2024-05-09T01:01:47.585Z,-19.3
2024-05-09T01:02:47.431Z,-19.2
2024-05-09T01:03:50.425Z,-19.1
2024-05-09T01:04:47.567Z,-19
2024-05-09T01:05:47.408Z,-18.9
2024-05-09T01:06:47.341Z,-18.8
2024-05-09T01:07:47.419Z,-18.7
2024-05-09T01:08:47.367Z,-18.6
2024-05-09T01:09:47.359Z,-18.5
2024-05-09T01:10:48.630Z,-18.4
2024-05-09T01:11:47.432Z,-18.3
2024-05-09T01:12:47.385Z,-18.2
2024-05-09T01:13:47.395Z,-18.1
2024-05-09T01:14:47.366Z,-18
2024-05-09T01:15:47.377Z,-17.9
2024-05-09T01:16:47.416Z,-17.8
2024-05-09T01:17:47.660Z,-17.7
2024-05-09T01:18:47.496Z,-17.6
2024-05-09T01:19:47.451Z,-17.5
2024-05-09T01:20:47.388Z,-17.4
2024-05-09T01:21:47.338Z,-17.3
2024-05-09T01:22:47.438Z,-17.2
2024-05-09T01:23:47.374Z,-17.1
2024-05-09T01:24:47.370Z,-17
2024-05-09T01:25:47.497Z,-16.9
2024-05-09T01:26:47.380Z,-16.8
2024-05-09T01:27:47.369Z,-16.7
2024-05-09T01:28:47.392Z,-16.6
2024-05-09T01:29:47.365Z,-16.5
2024-05-09T01:30:47.348Z,-16.3
2024-05-09T01:31:47.447Z,-16.2
2024-05-09T01:32:47.574Z,-16.1
2024-05-09T01:33:47.596Z,-16
2024-05-09T01:34:47.377Z,-15.9
2024-05-09T01:35:47.349Z,-15.8
2024-05-09T01:36:47.376Z,-15.7
2024-05-09T01:37:47.376Z,-15.6
2024-05-09T01:38:47.391Z,-15.5
2024-05-09T01:39:47.393Z,-15.4
2024-05-09T01:40:47.446Z,-15.2
2024-05-09T01:41:47.392Z,-15.1
2024-05-09T01:42:47.381Z,-15
2024-05-09T01:43:47.392Z,-14.9
2024-05-09T01:44:47.394Z,-14.8
2024-05-09T01:45:47.344Z,-14.7
2024-05-09T01:46:47.366Z,-14.6
2024-05-09T01:47:47.455Z,-14.4
2024-05-09T01:48:47.481Z,-14.3
2024-05-09T01:49:47.412Z,-14.2
2024-05-09T01:50:47.373Z,-14.1
2024-05-09T01:51:47.375Z,-14
2024-05-09T01:52:47.463Z,-13.8
2024-05-09T01:53:47.381Z,-13.7
2024-05-09T01:54:47.385Z,-13.6
2024-05-09T01:55:47.512Z,-13.5
2024-05-09T01:56:47.381Z,-13.4
2024-05-09T01:57:47.361Z,-13.2
2024-05-09T01:58:47.384Z,-13.1
2024-05-09T01:59:47.376Z,-13
2024-05-09T02:00:47.400Z,-12.9
2024-05-09T02:01:56.570Z,-12.8
2024-05-09T02:02:47.567Z,-12.6
2024-05-09T02:03:47.585Z,-12.5
2024-05-09T02:04:47.414Z,-12.4
2024-05-09T02:05:48.063Z,-12.3
2024-05-09T02:06:47.353Z,-12.1
2024-05-09T02:07:47.367Z,-12
2024-05-09T02:08:47.360Z,-11.9
2024-05-09T02:09:47.362Z,-11.8
2024-05-09T02:10:47.970Z,-11.6
2024-05-09T02:11:47.482Z,-11.5
2024-05-09T02:12:47.334Z,-11.4
2024-05-09T02:13:47.405Z,-11.3
2024-05-09T02:14:47.319Z,-11.1
2024-05-09T02:15:47.348Z,-11
2024-05-09T02:16:47.397Z,-10.9
2024-05-09T02:17:47.613Z,-10.7
2024-05-09T02:18:47.482Z,-10.6
2024-05-09T02:19:47.391Z,-10.5
2024-05-09T02:20:47.397Z,-10.4
2024-05-09T02:21:47.322Z,-10.2
2024-05-09T02:22:47.396Z,-10.1
2024-05-09T02:23:47.362Z,-10
2024-05-09T02:24:47.335Z,-9.8
2024-05-09T02:25:47.387Z,-9.7
2024-05-09T02:26:47.371Z,-9.6
2024-05-09T02:27:47.389Z,-9.4
2024-05-09T02:28:47.373Z,-9.3
2024-05-09T02:29:47.342Z,-9.2
2024-05-09T02:30:47.363Z,-9
2024-05-09T02:31:47.458Z,-8.9
2024-05-09T02:32:47.562Z,-8.8
2024-05-09T02:33:47.550Z,-8.6
2024-05-09T02:34:47.361Z,-8.5
2024-05-09T02:35:47.364Z,-8.4
2024-05-09T02:36:47.334Z,-8.2
2024-05-09T02:37:47.438Z,-8.1
2024-05-09T02:38:47.359Z,-7.9
2024-05-09T02:39:47.359Z,-7.8
2024-05-09T02:40:47.397Z,-7.7
2024-05-09T02:41:47.358Z,-7.5
2024-05-09T02:42:47.362Z,-7.4
2024-05-09T02:43:47.393Z,-7.2
2024-05-09T02:44:47.348Z,-7.1
2024-05-09T02:45:47.349Z,-7
2024-05-09T02:46:47.440Z,-6.8
2024-05-09T02:47:47.503Z,-6.7
2024-05-09T02:48:47.516Z,-6.6
2024-05-09T02:49:47.408Z,-6.4
2024-05-09T02:50:47.395Z,-6.3
2024-05-09T02:51:47.370Z,-6.1
2024-05-09T02:52:47.392Z,-6
2024-05-09T02:53:47.376Z,-5.8
2024-05-09T02:54:47.381Z,-5.7
2024-05-09T02:55:47.400Z,-5.6
2024-05-09T02:56:47.351Z,-5.4
2024-05-09T02:57:47.368Z,-5.3
2024-05-09T02:58:47.379Z,-5.1
2024-05-09T02:59:47.375Z,-5
2024-05-09T03:00:47.429Z,-4.8
2024-05-09T03:01:47.473Z,-4.7
2024-05-09T03:02:47.489Z,-4.6
2024-05-09T03:03:47.539Z,-4.4
2024-05-09T03:04:47.396Z,-4.3
2024-05-09T03:05:47.503Z,-4.1
2024-05-09T03:06:47.364Z,-4
2024-05-09T03:07:47.385Z,-3.8
2024-05-09T03:08:47.411Z,-3.7
2024-05-09T03:09:47.357Z,-3.5
2024-05-09T03:10:47.388Z,-3.4
2024-05-09T03:11:47.495Z,-3.2
2024-05-09T03:12:47.383Z,-3.1
2024-05-09T03:13:47.368Z,-2.9
2024-05-09T03:14:47.380Z,-2.8
2024-05-09T03:15:47.381Z,-2.6
2024-05-09T03:16:47.355Z,-2.5
2024-05-09T03:17:47.451Z,-2.3
2024-05-09T03:18:47.440Z,-2.2
2024-05-09T03:19:47.364Z,-2
2024-05-09T03:20:47.380Z,-1.9
2024-05-09T03:21:47.370Z,-1.7
2024-05-09T03:22:47.394Z,-1.6
2024-05-09T03:23:47.402Z,-1.4
2024-05-09T03:24:47.368Z,-1.3
2024-05-09T03:25:47.402Z,-1.1
2024-05-09T03:26:47.353Z,-1
2024-05-09T03:27:47.354Z,-0.8
2024-05-09T03:28:47.366Z,-0.7
2024-05-09T03:29:47.380Z,-0.5
2024-05-09T03:30:47.378Z,-0.4
2024-05-09T03:31:47.419Z,-0.2
2024-05-09T03:32:47.619Z,-0.1
2024-05-09T03:33:47.586Z,0
2024-05-09T03:34:47.403Z,0.1
2024-05-09T03:35:47.611Z,0.3
2024-05-09T03:36:47.374Z,0.4
2024-05-09T03:37:47.368Z,0.6
2024-05-09T03:38:47.372Z,0.7
2024-05-09T03:39:47.342Z,0.9
2024-05-09T03:40:47.753Z,1.1
2024-05-09T03:41:47.391Z,1.2
2024-05-09T03:42:47.341Z,1.4
2024-05-09T03:43:47.376Z,1.5
2024-05-09T03:44:47.370Z,1.7
2024-05-09T03:45:47.399Z,1.8
2024-05-09T03:46:47.401Z,2
2024-05-09T03:47:47.502Z,2.1
2024-05-09T03:48:47.492Z,2.3
2024-05-09T03:49:47.382Z,2.5
2024-05-09T03:50:47.500Z,2.6
2024-05-09T03:51:47.354Z,2.8
2024-05-09T03:52:47.440Z,2.9
2024-05-09T03:53:47.433Z,3.1
2024-05-09T03:54:47.382Z,3.2
2024-05-09T03:55:47.384Z,3.4
2024-05-09T03:56:47.375Z,3.6
2024-05-09T03:57:47.358Z,3.7
2024-05-09T03:58:47.403Z,3.9
2024-05-09T03:59:47.379Z,4
2024-05-09T04:00:47.424Z,4.2
2024-05-09T04:01:47.450Z,4.4
2024-05-09T04:02:47.492Z,4.5
2024-05-09T04:03:47.653Z,4.7
2024-05-09T04:04:47.503Z,4.8
2024-05-09T04:05:47.419Z,5
2024-05-09T04:06:47.366Z,5.2
2024-05-09T04:07:47.396Z,5.3
2024-05-09T04:08:47.401Z,5.5
2024-05-09T04:09:47.338Z,5.6
2024-05-09T04:10:47.425Z,5.8
2024-05-09T04:11:47.496Z,6
2024-05-09T04:12:47.359Z,6.1
2024-05-09T04:13:47.401Z,6.3
2024-05-09T04:14:47.377Z,6.4
2024-05-09T04:15:47.374Z,6.6
2024-05-09T04:16:47.435Z,6.8
2024-05-09T04:17:47.562Z,6.9
2024-05-09T04:18:47.454Z,7.1
2024-05-09T04:19:47.392Z,7.3
2024-05-09T04:20:47.403Z,7.4
2024-05-09T04:21:47.346Z,7.6
2024-05-09T04:22:47.380Z,7.7
2024-05-09T04:23:47.424Z,7.9
2024-05-09T04:24:47.385Z,8.1
2024-05-09T04:25:47.469Z,8.2
2024-05-09T04:26:47.371Z,8.4
2024-05-09T04:27:47.363Z,8.6
2024-05-09T04:28:47.402Z,8.7
2024-05-09T04:29:47.319Z,8.9
2024-05-09T04:30:47.348Z,9
2024-05-09T04:31:47.464Z,9.2
2024-05-09T04:32:47.532Z,9.4
2024-05-09T04:33:47.494Z,9.5
2024-05-09T04:34:47.431Z,9.7
2024-05-09T04:35:47.389Z,9.9
2024-05-09T04:36:47.372Z,10
2024-05-09T04:37:47.409Z,10.2
2024-05-09T04:38:47.404Z,10.4
2024-05-09T04:39:47.340Z,10.5
2024-05-09T04:40:47.378Z,10.7
2024-05-09T04:41:47.351Z,10.9
2024-05-09T04:42:47.383Z,11
2024-05-09T04:43:47.404Z,11.2
2024-05-09T04:44:47.342Z,11.4
2024-05-09T04:45:47.427Z,11.5
2024-05-09T04:46:47.418Z,11.7
2024-05-09T04:47:47.617Z,11.9
2024-05-09T04:48:47.450Z,12
2024-05-09T04:49:47.410Z,12.2
2024-05-09T04:50:47.455Z,12.4
2024-05-09T04:51:47.383Z,12.5
2024-05-09T04:52:47.444Z,12.7
2024-05-09T04:53:47.361Z,12.9
2024-05-09T04:54:47.322Z,13
2024-05-09T04:55:47.557Z,13.2
2024-05-09T04:56:47.364Z,13.4
2024-05-09T04:57:47.360Z,13.5
2024-05-09T04:58:47.407Z,13.7
2024-05-09T04:59:47.362Z,13.9
2024-05-09T05:00:47.527Z,14
2024-05-09T05:01:47.463Z,14.2
2024-05-09T05:02:47.513Z,14.4
2024-05-09T05:03:47.509Z,14.5
2024-05-09T05:04:47.527Z,14.7
2024-05-09T05:05:47.390Z,14.9
2024-05-09T05:06:47.363Z,15
2024-05-09T05:07:47.412Z,15.2
2024-05-09T05:08:47.377Z,15.4
2024-05-09T05:09:47.388Z,15.5
2024-05-09T05:10:48.385Z,15.7
2024-05-09T05:11:47.474Z,15.9
2024-05-09T05:12:47.346Z,16
2024-05-09T05:13:47.418Z,16.2
2024-05-09T05:14:47.383Z,16.4
2024-05-09T05:15:47.458Z,16.6
2024-05-09T05:16:47.427Z,16.7
2024-05-09T05:17:47.688Z,16.9
2024-05-09T05:18:47.547Z,17.1
2024-05-09T05:19:47.564Z,17.2
2024-05-09T05:20:47.462Z,17.4
2024-05-09T05:21:47.381Z,17.6
2024-05-09T05:22:47.438Z,17.7
2024-05-09T05:23:47.415Z,17.9
2024-05-09T05:24:47.355Z,18.1
2024-05-09T05:25:47.417Z,18.2
2024-05-09T05:26:47.382Z,18.4
2024-05-09T05:27:47.340Z,18.6
2024-05-09T05:28:47.413Z,18.8
2024-05-09T05:29:47.426Z,18.9
2024-05-09T05:30:47.420Z,19.1
2024-05-09T05:31:47.517Z,19.3
2024-05-09T05:32:47.534Z,19.4
2024-05-09T05:33:47.495Z,19.6
2024-05-09T05:34:47.396Z,19.8
2024-05-09T05:35:47.402Z,19.9
2024-05-09T05:36:47.381Z,20.1
2024-05-09T05:37:47.374Z,20.3
2024-05-09T05:38:47.480Z,20.5
2024-05-09T05:39:47.365Z,20.6
2024-05-09T05:40:47.401Z,20.8
2024-05-09T05:41:47.342Z,21
2024-05-09T05:42:47.365Z,21.1
2024-05-09T05:43:47.421Z,21.3
2024-05-09T05:44:47.344Z,21.5
2024-05-09T05:45:47.398Z,21.6
2024-05-09T05:46:47.465Z,21.8
2024-05-09T05:47:47.641Z,22
2024-05-09T05:48:47.536Z,22.2
2024-05-09T05:49:47.410Z,22.3
2024-05-09T05:50:47.453Z,22.5
2024-05-09T05:51:47.365Z,22.7
2024-05-09T05:52:47.425Z,22.8
2024-05-09T05:53:47.426Z,23
2024-05-09T05:54:47.396Z,23.2
2024-05-09T05:55:47.422Z,23.4
2024-05-09T05:56:47.436Z,23.5
2024-05-09T05:57:47.394Z,23.7
2024-05-09T05:58:47.439Z,23.9
2024-05-09T05:59:47.436Z,24
2024-05-09T06:00:47.450Z,24.2
2024-05-09T06:01:47.395Z,24.4
2024-05-09T06:02:47.452Z,24.5
2024-05-09T06:03:47.524Z,24.7
2024-05-09T06:04:47.522Z,24.9
2024-05-09T06:05:47.394Z,25.1
2024-05-09T06:06:47.378Z,25.2
2024-05-09T06:07:47.414Z,25.4
2024-05-09T06:08:47.402Z,25.6
2024-05-09T06:09:48.259Z,25.7
2024-05-09T06:10:47.524Z,25.9
2024-05-09T06:11:47.538Z,26.1
2024-05-09T06:12:47.385Z,26.3
2024-05-09T06:13:47.441Z,26.4
2024-05-09T06:14:47.374Z,26.6
2024-05-09T06:15:47.378Z,26.8
2024-05-09T06:16:47.414Z,26.9
2024-05-09T06:17:47.564Z,27.1
2024-05-09T06:18:47.515Z,27.3
2024-05-09T06:19:47.568Z,27.4
2024-05-09T06:20:47.388Z,27.6
2024-05-09T06:21:47.404Z,27.8
2024-05-09T06:22:47.405Z,28
2024-05-09T06:23:47.388Z,28.1
2024-05-09T06:24:47.366Z,28.3
2024-05-09T06:25:47.471Z,28.5
2024-05-09T06:26:47.385Z,28.6
2024-05-09T06:27:47.399Z,28.8
2024-05-09T06:28:47.449Z,29
2024-05-09T06:29:47.390Z,29.1
2024-05-09T06:30:47.391Z,29.3
2024-05-09T06:31:47.357Z,29.5
2024-05-09T06:32:47.504Z,29.7
2024-05-09T06:33:47.469Z,29.8
2024-05-09T06:34:47.567Z,30
2024-05-09T06:35:47.383Z,30.2
2024-05-09T06:36:47.378Z,30.3
2024-05-09T06:37:47.383Z,30.5
2024-05-09T06:38:47.404Z,30.7
2024-05-09T06:39:47.343Z,30.8
2024-05-09T06:40:47.392Z,31
2024-05-09T06:41:47.355Z,31.2
2024-05-09T06:42:47.354Z,31.3
2024-05-09T06:43:47.364Z,31.5
2024-05-09T06:44:47.356Z,31.7
2024-05-09T06:45:48.070Z,31.9
2024-05-09T06:46:47.470Z,32
2024-05-09T06:47:47.509Z,32.2
2024-05-09T06:48:47.582Z,32.4
2024-05-09T06:49:47.493Z,32.5
2024-05-09T06:50:47.386Z,32.7
2024-05-09T06:51:47.346Z,32.9
2024-05-09T06:52:47.427Z,33
2024-05-09T06:53:47.404Z,33.2
2024-05-09T06:54:47.378Z,33.4
2024-05-09T06:55:47.437Z,33.5
2024-05-09T06:56:47.353Z,33.7
2024-05-09T06:57:47.333Z,33.9
2024-05-09T06:58:47.398Z,34
2024-05-09T06:59:47.326Z,34.2
2024-05-09T07:00:47.554Z,34.4
2024-05-09T07:01:47.446Z,34.5
2024-05-09T07:02:47.473Z,34.7
2024-05-09T07:03:47.442Z,34.9
2024-05-09T07:04:47.485Z,35
2024-05-09T07:05:48.712Z,35.2
2024-05-09T07:06:47.374Z,35.4
2024-05-09T07:07:47.426Z,35.5
2024-05-09T07:08:48.715Z,35.7
2024-05-09T07:09:47.378Z,35.9
2024-05-09T07:10:47.545Z,36
2024-05-09T07:11:47.458Z,36.2
2024-05-09T07:12:47.374Z,36.4
2024-05-09T07:13:47.434Z,36.5
2024-05-09T07:14:47.432Z,36.7
2024-05-09T07:15:47.362Z,36.9
2024-05-09T07:16:47.514Z,37
2024-05-09T07:17:47.490Z,37.2
2024-05-09T07:18:47.510Z,37.4
2024-05-09T07:19:47.443Z,37.5
2024-05-09T07:20:47.861Z,37.7
2024-05-09T07:21:47.378Z,37.9
2024-05-09T07:22:47.386Z,38
2024-05-09T07:23:47.599Z,38.2
2024-05-09T07:24:47.376Z,38.3
2024-05-09T07:25:47.566Z,38.5
2024-05-09T07:26:47.402Z,38.7
2024-05-09T07:27:47.384Z,38.8
2024-05-09T07:28:47.413Z,39
2024-05-09T07:29:47.433Z,39.2
2024-05-09T07:30:47.452Z,39.3
2024-05-09T07:31:47.312Z,39.5
2024-05-09T07:32:47.671Z,39.6
2024-05-09T07:33:47.496Z,39.8
2024-05-09T07:34:47.391Z,40
2024-05-09T07:35:47.389Z,40.1
2024-05-09T07:36:47.388Z,40.3
2024-05-09T07:37:47.411Z,40.5
2024-05-09T07:38:47.368Z,40.6
2024-05-09T07:39:47.371Z,40.8
2024-05-09T07:40:47.439Z,40.9
2024-05-09T07:41:47.414Z,41.1
2024-05-09T07:42:47.345Z,41.3
2024-05-09T07:43:47.409Z,41.4
2024-05-09T07:44:47.344Z,41.6
2024-05-09T07:45:52.716Z,41.7
2024-05-09T07:47:48.586Z,41.9
2024-05-09T07:50:55.864Z,42.3
2024-05-09T07:53:34.209Z,42.8
2024-05-09T07:53:47.490Z,43
2024-05-09T07:53:55.975Z,43
2024-05-09T07:54:01.530Z,43
2024-05-09T07:54:04.785Z,43
2024-05-09T07:54:07.906Z,43
2024-05-09T07:54:47.464Z,43.1
2024-05-09T07:55:47.525Z,43.3
2024-05-09T07:56:47.449Z,43.5
2024-05-09T07:57:47.437Z,43.6
2024-05-09T07:58:47.379Z,43.8
2024-05-09T07:59:47.386Z,43.9
2024-05-09T08:00:47.519Z,44.1
2024-05-09T08:01:47.543Z,44.2
2024-05-09T08:02:47.438Z,44.4
2024-05-09T08:03:47.626Z,44.5
2024-05-09T08:04:47.376Z,44.7
2024-05-09T08:05:47.369Z,44.9
2024-05-09T08:06:47.399Z,45
2024-05-09T08:07:47.380Z,45.2
2024-05-09T08:08:47.425Z,45.3
2024-05-09T08:09:47.369Z,45.5
2024-05-09T08:10:47.404Z,45.6
2024-05-09T08:11:47.423Z,45.8
2024-05-09T08:12:47.365Z,45.9
2024-05-09T08:13:47.352Z,46.1
2024-05-09T08:14:47.372Z,46.2
2024-05-09T08:15:47.395Z,46.4
2024-05-09T08:16:47.356Z,46.5
2024-05-09T08:17:47.473Z,46.7
2024-05-09T08:18:47.453Z,46.8
2024-05-09T08:19:47.378Z,47
2024-05-09T08:20:47.350Z,47.1
2024-05-09T08:21:47.394Z,47.2
2024-05-09T08:22:47.384Z,47.4
2024-05-09T08:23:47.354Z,47.5
2024-05-09T08:24:47.389Z,47.7
2024-05-09T08:25:47.370Z,47.8
2024-05-09T08:26:47.378Z,48
2024-05-09T08:27:47.456Z,48.1
2024-05-09T08:28:47.395Z,48.3
2024-05-09T08:29:47.398Z,48.4
2024-05-09T08:30:47.646Z,48.6
2024-05-09T08:31:47.410Z,48.7
2024-05-09T08:32:47.449Z,48.8
2024-05-09T08:33:47.636Z,49
2024-05-09T08:34:47.409Z,49.1
2024-05-09T08:35:47.334Z,49.3
2024-05-09T08:36:47.401Z,49.4
2024-05-09T08:37:47.404Z,49.5
2024-05-09T08:38:47.371Z,49.7
2024-05-09T08:39:47.368Z,49.8
2024-05-09T08:40:47.372Z,50
2024-05-09T08:41:47.370Z,50.1
2024-05-09T08:42:47.388Z,50.2
2024-05-09T08:43:47.331Z,50.4
2024-05-09T08:44:47.367Z,50.5
2024-05-09T08:45:47.400Z,50.6
2024-05-09T08:46:47.352Z,50.8
2024-05-09T08:47:47.372Z,50.9
2024-05-09T08:48:47.491Z,51
2024-05-09T08:49:47.465Z,51.2
2024-05-09T08:50:47.469Z,51.3
2024-05-09T08:51:47.363Z,51.4
2024-05-09T08:52:47.343Z,51.6
2024-05-09T08:53:47.355Z,51.7
2024-05-09T08:54:47.419Z,51.8
2024-05-09T08:55:47.378Z,52
2024-05-09T08:56:47.371Z,52.1
2024-05-09T08:57:47.393Z,52.2
2024-05-09T08:58:47.374Z,52.3
2024-05-09T08:59:47.387Z,52.5
2024-05-09T09:00:47.630Z,52.6
2024-05-09T09:01:47.459Z,52.7
2024-05-09T09:02:47.313Z,52.8
2024-05-09T09:03:47.588Z,53
2024-05-09T09:04:47.456Z,53.1
2024-05-09T09:05:47.380Z,53.2
2024-05-09T09:06:47.402Z,53.3
2024-05-09T09:07:47.363Z,53.5
2024-05-09T09:08:47.362Z,53.6
2024-05-09T09:09:47.403Z,53.7
2024-05-09T09:10:47.681Z,53.8
2024-05-09T09:11:47.354Z,53.9
2024-05-09T09:12:47.409Z,54
2024-05-09T09:13:47.358Z,54.2
2024-05-09T09:14:47.384Z,54.3
2024-05-09T09:15:47.417Z,54.4
2024-05-09T09:16:47.357Z,54.5
2024-05-09T09:17:47.418Z,54.6
2024-05-09T09:18:47.510Z,54.7
2024-05-09T09:19:47.395Z,54.8
2024-05-09T09:20:47.438Z,55
2024-05-09T09:21:47.362Z,55.1
2024-05-09T09:22:47.376Z,55.2
2024-05-09T09:23:47.355Z,55.3
2024-05-09T09:24:47.426Z,55.4
2024-05-09T09:25:47.352Z,55.5
2024-05-09T09:26:47.354Z,55.6
2024-05-09T09:27:47.350Z,55.7
2024-05-09T09:28:47.368Z,55.8
2024-05-09T09:29:47.374Z,55.9
2024-05-09T09:30:47.448Z,56
2024-05-09T09:31:47.353Z,56.1
2024-05-09T09:32:47.467Z,56.2
2024-05-09T09:33:47.685Z,56.3
2024-05-09T09:34:47.330Z,56.4
2024-05-09T09:35:47.379Z,56.5
2024-05-09T09:36:47.406Z,56.6
2024-05-09T09:37:47.370Z,56.7
2024-05-09T09:38:47.367Z,56.8
2024-05-09T09:39:49.140Z,56.9
2024-05-09T09:40:49.621Z,57
2024-05-09T09:41:47.380Z,57.1
2024-05-09T09:42:47.420Z,57.2
2024-05-09T09:43:47.367Z,57.3
2024-05-09T09:44:57.643Z,57.4
2024-05-09T09:45:47.426Z,57.4
2024-05-09T09:46:47.337Z,57.5
2024-05-09T09:47:47.541Z,57.6
2024-05-09T09:48:47.433Z,57.7
2024-05-09T09:49:47.390Z,57.8
2024-05-09T09:50:47.326Z,57.9
2024-05-09T09:51:47.368Z,57.9
2024-05-09T09:52:47.354Z,58
2024-05-09T09:53:47.392Z,58.1
2024-05-09T09:54:47.415Z,58.2
2024-05-09T09:55:47.374Z,58.3
2024-05-09T09:56:47.362Z,58.3
2024-05-09T09:57:47.377Z,58.4
2024-05-09T09:58:47.352Z,58.5
2024-05-09T09:59:47.379Z,58.6
2024-05-09T10:00:47.558Z,58.6
2024-05-09T10:01:47.406Z,58.7
2024-05-09T10:02:47.391Z,58.8
2024-05-09T10:03:47.563Z,58.8
2024-05-09T10:04:47.465Z,58.9
2024-05-09T10:05:47.773Z,59
2024-05-09T10:06:47.400Z,59
2024-05-09T10:07:47.341Z,59.1
2024-05-09T10:08:47.364Z,59.1
2024-05-09T10:09:47.391Z,59.2
2024-05-09T10:10:47.817Z,59.3
2024-05-09T10:11:51.852Z,59.3
2024-05-09T10:12:47.397Z,59.4
2024-05-09T10:13:47.382Z,59.4
2024-05-09T10:14:47.369Z,59.5
2024-05-09T10:15:47.357Z,59.5
2024-05-09T10:16:47.351Z,59.6
2024-05-09T10:17:47.430Z,59.6
2024-05-09T10:18:47.533Z,59.7
2024-05-09T10:19:47.381Z,59.7
2024-05-09T10:20:47.337Z,59.8
2024-05-09T10:21:47.515Z,59.8
2024-05-09T10:22:47.366Z,59.9
2024-05-09T10:23:47.351Z,59.9
2024-05-09T10:24:47.415Z,59.9
2024-05-09T10:25:47.362Z,60
2024-05-09T10:26:47.363Z,60
2024-05-09T10:27:47.441Z,60.1
2024-05-09T10:28:47.374Z,60.1
2024-05-09T10:29:47.375Z,60.1
2024-05-09T10:30:48.966Z,60.2
2024-05-09T10:31:47.419Z,60.2
2024-05-09T10:32:47.423Z,60.2
2024-05-09T10:33:47.572Z,60.2
2024-05-09T10:34:47.393Z,60.3
2024-05-09T10:35:47.371Z,60.3
2024-05-09T10:36:47.435Z,60.3
2024-05-09T10:37:47.356Z,60.3
2024-05-09T10:38:47.294Z,60.4
2024-05-09T10:39:47.371Z,60.4
2024-05-09T10:40:47.403Z,60.4
2024-05-09T10:41:47.361Z,60.4
2024-05-09T10:42:47.365Z,60.4
2024-05-09T10:43:47.336Z,60.4
2024-05-09T10:44:47.372Z,60.5
2024-05-09T10:45:47.454Z,60.5
2024-05-09T10:46:47.386Z,60.5
2024-05-09T10:47:47.456Z,60.5
2024-05-09T10:48:47.840Z,60.5
2024-05-09T10:49:47.621Z,60.5
2024-05-09T10:50:47.359Z,60.5
2024-05-09T10:51:47.494Z,60.5
2024-05-09T10:52:47.375Z,60.5
2024-05-09T10:53:47.368Z,60.5
2024-05-09T10:54:47.381Z,60.5
2024-05-09T10:55:47.376Z,60.5
2024-05-09T10:56:47.381Z,60.5
2024-05-09T10:57:47.319Z,60.5
2024-05-09T10:58:47.364Z,60.5
2024-05-09T10:59:47.397Z,60.5
2024-05-09T11:00:47.464Z,60.5
2024-05-09T11:01:47.455Z,60.4
2024-05-09T11:02:47.360Z,60.4
2024-05-09T11:03:47.730Z,60.4
2024-05-09T11:04:47.439Z,60.4
2024-05-09T11:05:47.369Z,60.4
2024-05-09T11:06:47.440Z,60.4
2024-05-09T11:07:47.375Z,60.3
2024-05-09T11:08:47.354Z,60.3
2024-05-09T11:09:47.349Z,60.3
2024-05-09T11:10:47.515Z,60.3
2024-05-09T11:11:47.400Z,60.2
2024-05-09T11:12:47.401Z,60.2
2024-05-09T11:13:47.417Z,60.2
2024-05-09T11:14:47.395Z,60.1
2024-05-09T11:15:47.408Z,60.1
2024-05-09T11:16:47.375Z,60.1
2024-05-09T11:17:47.532Z,60
2024-05-09T11:18:47.507Z,60
2024-05-09T11:19:47.409Z,60
2024-05-09T11:20:47.394Z,59.9
2024-05-09T11:21:47.392Z,59.9
2024-05-09T11:22:47.343Z,59.9
2024-05-09T11:23:47.380Z,59.8
2024-05-09T11:24:47.384Z,59.8
2024-05-09T11:25:47.358Z,59.7
2024-05-09T11:26:47.323Z,59.7
2024-05-09T11:27:47.384Z,59.6
2024-05-09T11:28:47.371Z,59.6
2024-05-09T11:29:47.346Z,59.5
2024-05-09T11:30:47.372Z,59.5
2024-05-09T11:31:47.534Z,59.4
2024-05-09T11:32:47.431Z,59.4
2024-05-09T11:33:47.592Z,59.3
2024-05-09T11:34:47.363Z,59.2
2024-05-09T11:35:47.364Z,59.2
2024-05-09T11:36:47.457Z,59.1
2024-05-09T11:37:47.368Z,59.1
2024-05-09T11:38:47.328Z,59
2024-05-09T11:39:47.390Z,58.9
2024-05-09T11:40:47.452Z,58.9
2024-05-09T11:41:47.349Z,58.8
2024-05-09T11:42:49.926Z,58.7
2024-05-09T11:43:47.382Z,58.7
2024-05-09T11:44:47.326Z,58.6
2024-05-09T11:45:47.396Z,58.5
2024-05-09T11:46:47.394Z,58.5
2024-05-09T11:47:47.460Z,58.4
2024-05-09T11:48:47.495Z,58.3
2024-05-09T11:49:47.344Z,58.2
2024-05-09T11:50:47.373Z,58.2
2024-05-09T11:51:47.413Z,58.1
2024-05-09T11:52:47.366Z,58
2024-05-09T11:53:47.379Z,57.9
2024-05-09T11:54:47.382Z,57.8
2024-05-09T11:55:47.358Z,57.8
2024-05-09T11:56:47.397Z,57.7
2024-05-09T11:57:47.343Z,57.6
2024-05-09T11:58:47.401Z,57.5
2024-05-09T11:59:47.371Z,57.4
2024-05-09T12:00:47.631Z,57.3
2024-05-09T12:01:47.456Z,57.2
2024-05-09T12:02:47.354Z,57.2
2024-05-09T12:03:47.542Z,57.1
2024-05-09T12:04:47.483Z,57
2024-05-09T12:05:47.503Z,56.9
2024-05-09T12:06:47.394Z,56.8
2024-05-09T12:07:47.410Z,56.7
2024-05-09T12:08:47.302Z,56.6
2024-05-09T12:09:47.431Z,56.5
2024-05-09T12:10:47.610Z,56.4
2024-05-09T12:11:47.481Z,56.3
2024-05-09T12:12:47.405Z,56.2
2024-05-09T12:13:47.376Z,56.1
2024-05-09T12:14:47.355Z,56
2024-05-09T12:15:47.425Z,55.9
2024-05-09T12:16:47.563Z,55.8
2024-05-09T12:17:49.556Z,55.7
2024-05-09T12:18:47.454Z,55.6
2024-05-09T12:19:47.406Z,55.5
2024-05-09T12:20:47.381Z,55.4
2024-05-09T12:21:47.429Z,55.3
2024-05-09T12:22:47.355Z,55.1
2024-05-09T12:23:47.371Z,55
2024-05-09T12:24:47.401Z,54.9
2024-05-09T12:25:47.364Z,54.8
2024-05-09T12:26:47.376Z,54.7
2024-05-09T12:27:47.465Z,54.6
2024-05-09T12:28:47.360Z,54.5
2024-05-09T12:29:47.351Z,54.4
2024-05-09T12:30:47.394Z,54.3
2024-05-09T12:31:47.349Z,54.1
2024-05-09T12:32:47.545Z,54
2024-05-09T12:33:47.487Z,53.9
2024-05-09T12:34:47.438Z,53.8
2024-05-09T12:35:50.125Z,53.7
2024-05-09T12:36:47.409Z,53.5
2024-05-09T12:37:47.400Z,53.4
2024-05-09T12:38:47.373Z,53.3
2024-05-09T12:39:47.382Z,53.2
2024-05-09T12:40:47.429Z,53.1
2024-05-09T12:41:47.357Z,52.9
2024-05-09T12:42:47.455Z,52.8
2024-05-09T12:43:47.384Z,52.7
2024-05-09T12:44:47.370Z,52.6
2024-05-09T12:45:47.415Z,52.4
2024-05-09T12:46:47.377Z,52.3
2024-05-09T12:47:47.450Z,52.2
2024-05-09T12:48:47.553Z,52
2024-05-09T12:49:47.452Z,51.9
2024-05-09T12:50:47.552Z,51.8
2024-05-09T12:51:47.398Z,51.7
2024-05-09T12:52:47.359Z,51.5
2024-05-09T12:53:47.383Z,51.4
2024-05-09T12:54:47.358Z,51.3
2024-05-09T12:55:53.778Z,51.1
2024-05-09T12:56:47.375Z,51
2024-05-09T12:57:47.387Z,50.9
2024-05-09T12:58:47.344Z,50.7
2024-05-09T12:59:47.379Z,50.6
2024-05-09T13:00:47.642Z,50.5
2024-05-09T13:01:47.457Z,50.3
2024-05-09T13:02:47.440Z,50.2
2024-05-09T13:03:47.434Z,50.1
2024-05-09T13:04:47.455Z,49.9
2024-05-09T13:05:47.506Z,49.8
2024-05-09T13:06:47.413Z,49.6
2024-05-09T13:07:47.381Z,49.5
2024-05-09T13:08:47.319Z,49.4
2024-05-09T13:09:47.482Z,49.2
2024-05-09T13:10:47.511Z,49.1
2024-05-09T13:11:47.442Z,48.9
2024-05-09T13:12:47.410Z,48.8
2024-05-09T13:13:47.413Z,48.7
2024-05-09T13:14:47.367Z,48.5
2024-05-09T13:15:47.353Z,48.4
2024-05-09T13:16:47.375Z,48.2
2024-05-09T13:17:47.421Z,48.1
2024-05-09T13:18:47.458Z,47.9
2024-05-09T13:19:47.361Z,47.8
2024-05-09T13:20:47.374Z,47.6
2024-05-09T13:21:47.395Z,47.5